createdAt,value
2019-01-16T00:01:57.040Z,82.45
2019-01-16T00:07:44.754Z,81.74
2019-01-16T00:10:51.125Z,82.00
2019-01-16T00:16:58.255Z,81.65
2019-01-16T00:22:54.038Z,83.22
2019-01-16T00:26:00.256Z,83.73
2019-01-16T00:28:45.185Z,83.62
2019-01-16T00:31:51.570Z,83.29
2019-01-16T00:34:51.480Z,82.82
2019-01-16T00:37:57.852Z,82.79
2019-01-16T00:44:04.057Z,83.93
2019-01-16T00:47:10.430Z,85.89
2019-01-16T00:53:17.899Z,88.93
2019-01-16T00:56:00.807Z,88.72
2019-01-16T00:59:07.265Z,87.98
2019-01-16T01:02:06.832Z,87.37
2019-01-16T01:05:13.113Z,87.09
2019-01-16T01:07:54.305Z,86.93
2019-01-16T01:10:40.473Z,86.27
2019-01-16T01:13:22.978Z,85.97
2019-01-16T01:16:29.329Z,85.65
2019-01-16T01:19:11.091Z,85.06
2019-01-16T01:22:17.183Z,84.79
2019-01-16T01:24:58.511Z,84.39
2019-01-16T01:28:04.863Z,83.30
2019-01-16T01:30:49.185Z,82.93
2019-01-16T01:33:55.533Z,83.31
2019-01-16T01:40:03.117Z,82.12
2019-01-16T01:46:08.625Z,81.18
2019-01-16T01:52:16.240Z,80.44
2019-01-16T01:55:16.223Z,80.03
2019-01-16T02:04:12.974Z,78.73
2019-01-16T02:07:19.357Z,78.21
2019-01-16T02:10:01.682Z,78.07
2019-01-16T02:13:02.942Z,77.19
2019-01-16T02:16:03.074Z,77.33
2019-01-16T02:19:10.172Z,76.87
2019-01-16T02:21:55.973Z,76.72
2019-01-16T02:25:02.330Z,76.58
2019-01-16T02:27:45.455Z,76.31
2019-01-16T02:30:51.813Z,76.16
2019-01-16T02:33:34.467Z,75.57
2019-01-16T02:36:35.521Z,75.98
2019-01-16T02:39:42.909Z,75.18
2019-01-16T02:48:44.746Z,74.83
2019-01-16T02:54:58.189Z,74.81
2019-01-16T03:04:15.066Z,76.23
2019-01-16T03:10:05.562Z,76.47
2019-01-16T03:13:12.577Z,76.95
2019-01-16T03:16:12.542Z,77.22
2019-01-16T03:19:18.648Z,76.96
2019-01-16T03:22:04.405Z,76.59
2019-01-16T03:25:10.494Z,76.96
2019-01-16T03:27:52.606Z,77.20
2019-01-16T03:33:51.731Z,77.77
2019-01-16T03:39:44.974Z,77.28
2019-01-16T03:45:54.743Z,79.11
2019-01-16T03:49:01.110Z,78.87
2019-01-16T03:51:44.465Z,79.29
2019-01-16T03:54:50.605Z,79.57
2019-01-16T03:57:32.783Z,80.07
2019-01-16T04:00:38.883Z,80.21
2019-01-16T04:06:52.585Z,80.41
2019-01-16T04:09:52.245Z,80.00
2019-01-16T04:12:38.701Z,79.99
2019-01-16T04:15:38.673Z,79.94
2019-01-16T04:21:55.185Z,80.15
2019-01-16T04:27:45.746Z,80.03
2019-01-16T04:30:52.115Z,80.50
2019-01-16T04:33:52.566Z,80.51
2019-01-16T04:36:59.859Z,79.97
2019-01-16T04:45:56.449Z,79.31
2019-01-16T04:51:53.065Z,79.29
2019-01-16T04:57:54.560Z,79.42
2019-01-16T05:01:00.673Z,79.32
2019-01-16T05:03:42.660Z,78.68
2019-01-16T05:06:49.012Z,78.53
2019-01-16T05:09:31.123Z,77.72
2019-01-16T05:12:37.225Z,77.20
2019-01-16T05:18:43.272Z,76.69
2019-01-16T05:21:49.655Z,76.18
2019-01-16T05:24:29.719Z,75.49
2019-01-16T05:27:35.833Z,75.39
2019-01-16T05:30:37.839Z,75.19
2019-01-16T05:36:26.329Z,74.85
2019-01-16T05:39:32.446Z,74.17
2019-01-16T05:42:32.768Z,73.59
2019-01-16T05:45:38.883Z,74.00
2019-01-16T05:48:21.222Z,73.89
2019-01-16T05:51:27.541Z,74.11
2019-01-16T05:54:11.215Z,73.80
2019-01-16T06:00:18.158Z,74.38
2019-01-16T06:03:18.609Z,73.70
2019-01-16T06:06:24.748Z,73.59
2019-01-16T06:09:25.140Z,72.85
2019-01-16T06:12:27.394Z,72.65
2019-01-16T06:15:13.627Z,72.52
2019-01-16T06:17:53.656Z,71.85
2019-01-16T06:21:00.062Z,71.91
2019-01-16T06:23:41.830Z,71.29
2019-01-16T06:26:48.205Z,72.12
2019-01-16T06:29:30.562Z,72.30
2019-01-16T06:32:36.700Z,71.65
2019-01-16T06:35:20.580Z,72.34
2019-01-16T06:38:01.927Z,72.35
2019-01-16T06:44:09.567Z,71.92
2019-01-16T06:47:15.648Z,71.55
2019-01-16T06:50:16.604Z,71.07
2019-01-16T06:53:23.336Z,71.62
2019-01-16T06:56:05.678Z,71.74
2019-01-16T06:58:50.352Z,72.22
2019-01-16T07:01:32.564Z,71.94
2019-01-16T07:04:17.263Z,71.82
2019-01-16T07:07:23.386Z,71.73
2019-01-16T07:10:25.966Z,71.04
2019-01-16T07:16:19.069Z,71.58
2019-01-16T07:19:25.443Z,71.90
2019-01-16T07:22:08.296Z,71.69
2019-01-16T07:25:07.772Z,71.93
2019-01-16T07:28:14.121Z,72.07
2019-01-16T07:30:58.732Z,71.84
2019-01-16T07:34:04.811Z,71.65
2019-01-16T07:36:46.543Z,71.36
2019-01-16T07:39:52.665Z,71.71
2019-01-16T07:42:52.915Z,72.13
2019-01-16T07:45:59.327Z,71.97
2019-01-16T07:48:59.962Z,71.62
2019-01-16T07:51:42.223Z,71.27
2019-01-16T07:54:48.611Z,71.26
2019-01-16T07:57:29.733Z,71.06
2019-01-16T08:00:31.078Z,71.20
2019-01-16T08:03:12.761Z,70.96
2019-01-16T08:06:19.081Z,71.06
2019-01-16T08:09:20.772Z,71.25
2019-01-16T08:12:26.859Z,71.35
2019-01-16T08:15:27.410Z,71.27
2019-01-16T08:18:33.887Z,70.85
2019-01-16T08:21:34.003Z,70.64
2019-01-16T08:24:34.308Z,70.19
2019-01-16T08:27:42.253Z,70.47
2019-01-16T08:30:43.396Z,69.77
2019-01-16T08:33:44.939Z,69.81
2019-01-16T08:36:45.187Z,70.22
2019-01-16T08:39:45.980Z,70.17
2019-01-16T08:42:52.378Z,69.57
2019-01-16T08:45:33.886Z,69.23
2019-01-16T08:48:39.962Z,69.39
2019-01-16T08:51:40.263Z,68.72
2019-01-16T08:54:46.624Z,68.81
2019-01-16T08:57:47.124Z,69.12
2019-01-16T09:03:53.405Z,69.15
2019-01-16T09:06:35.279Z,68.45
2019-01-16T09:09:41.646Z,68.89
2019-01-16T09:12:23.830Z,68.79
2019-01-16T09:15:34.707Z,68.29
2019-01-16T09:21:45.747Z,67.80
2019-01-16T09:24:51.939Z,67.54
2019-01-16T09:27:52.390Z,67.94
2019-01-16T09:33:59.937Z,68.06
2019-01-16T09:37:06.306Z,68.45
2019-01-16T09:43:12.935Z,68.16
2019-01-16T09:49:26.078Z,67.80
2019-01-16T09:52:07.345Z,68.41
2019-01-16T09:55:13.456Z,67.69
2019-01-16T10:00:53.081Z,68.02
2019-01-16T10:03:59.520Z,67.50
2019-01-16T10:06:42.416Z,66.98
2019-01-16T10:09:43.073Z,67.97
2019-01-16T10:12:49.178Z,66.82
2019-01-16T10:15:33.512Z,66.70
2019-01-16T10:18:39.584Z,66.53
2019-01-16T10:21:24.646Z,66.68
2019-01-16T10:24:30.764Z,66.30
2019-01-16T10:27:30.577Z,66.37
2019-01-16T10:31:04.625Z,65.04
2019-01-16T10:33:49.243Z,66.28
2019-01-16T10:40:09.799Z,66.36
2019-01-16T10:42:54.359Z,66.57
2019-01-16T10:46:01.380Z,67.26
2019-01-16T10:48:49.637Z,67.12
2019-01-16T10:51:25.014Z,68.56
2019-01-16T10:54:31.128Z,69.05
2019-01-16T10:57:31.484Z,69.50
2019-01-16T11:00:31.618Z,69.24
2019-01-16T11:03:37.979Z,68.68
2019-01-16T11:06:22.510Z,67.83
2019-01-16T11:09:28.616Z,67.95
2019-01-16T11:12:30.665Z,68.01
2019-01-16T11:15:30.766Z,67.17
2019-01-16T11:18:30.905Z,66.26
2019-01-16T11:21:37.453Z,66.57
2019-01-16T11:24:37.980Z,66.55
2019-01-16T11:27:44.323Z,65.42
2019-01-16T11:30:45.641Z,65.45
2019-01-16T11:33:52.116Z,64.06
2019-01-16T11:36:34.071Z,63.49
2019-01-16T11:39:40.419Z,62.93
2019-01-16T11:42:41.368Z,62.43
2019-01-16T11:45:47.462Z,61.98
2019-01-16T11:48:29.029Z,63.32
2019-01-16T11:51:35.380Z,62.86
2019-01-16T11:54:21.756Z,63.25
2019-01-16T11:57:27.924Z,63.53
2019-01-16T12:00:14.003Z,63.48
2019-01-16T12:03:20.474Z,64.37
2019-01-16T12:06:20.345Z,64.28
2019-01-16T12:09:48.511Z,63.50
2019-01-16T12:15:55.780Z,63.58
2019-01-16T12:18:58.740Z,63.34
2019-01-16T12:25:14.925Z,64.16
2019-01-16T12:31:15.703Z,64.05
2019-01-16T12:34:22.090Z,64.13
2019-01-16T12:37:22.145Z,64.22
2019-01-16T12:40:28.606Z,64.39
2019-01-16T12:43:28.968Z,63.78
2019-01-16T12:46:35.069Z,64.00
2019-01-16T12:49:34.953Z,64.45
2019-01-16T12:52:21.465Z,64.09
2019-01-16T12:58:29.104Z,64.37
2019-01-16T13:01:29.006Z,63.94
2019-01-16T13:04:35.165Z,64.13
2019-01-16T13:07:18.165Z,63.92
2019-01-16T13:10:46.062Z,64.00
2019-01-16T13:13:28.403Z,63.48
2019-01-16T13:16:34.747Z,63.40
2019-01-16T13:19:18.604Z,62.65
2019-01-16T13:22:24.753Z,62.66
2019-01-16T13:25:06.041Z,62.66
2019-01-16T13:28:12.163Z,62.29
2019-01-16T13:31:12.993Z,62.13
2019-01-16T13:34:19.083Z,62.08
2019-01-16T13:37:00.589Z,62.10
2019-01-16T13:40:07.979Z,62.18
2019-01-16T13:46:27.473Z,61.78
2019-01-16T13:49:09.517Z,61.79
2019-01-16T13:51:54.192Z,61.59
2019-01-16T13:55:00.267Z,62.28
2019-01-16T13:57:41.470Z,61.83
2019-01-16T14:00:23.887Z,61.77
2019-01-16T14:03:29.971Z,61.10
2019-01-16T14:09:40.862Z,61.31
2019-01-16T14:12:22.184Z,61.58
2019-01-16T14:18:55.445Z,61.60
2019-01-16T14:21:55.180Z,61.50
2019-01-16T14:24:56.633Z,61.63
2019-01-16T14:27:41.683Z,61.03
2019-01-16T14:30:48.037Z,61.17
2019-01-16T14:33:48.025Z,61.67
2019-01-16T14:39:57.638Z,61.24
2019-01-16T14:45:45.011Z,61.83
2019-01-16T14:48:51.288Z,61.98
2019-01-16T14:51:34.046Z,62.06
2019-01-16T14:54:40.439Z,62.20
2019-01-16T14:57:22.432Z,61.75
2019-01-16T15:00:50.391Z,60.68
2019-01-16T15:03:30.686Z,60.88
2019-01-16T15:06:11.980Z,61.19
2019-01-16T15:09:20.444Z,61.34
2019-01-16T15:12:03.108Z,61.23
2019-01-16T15:15:02.863Z,60.72
2019-01-16T15:18:09.212Z,60.99
2019-01-16T15:20:56.288Z,60.08
2019-01-16T15:24:02.379Z,60.45
2019-01-16T15:26:44.022Z,60.12
2019-01-16T15:29:50.371Z,60.61
2019-01-16T15:32:36.895Z,60.42
2019-01-16T15:38:51.121Z,60.07
2019-01-16T15:41:38.033Z,59.82
2019-01-16T15:44:44.119Z,59.64
2019-01-16T15:47:45.653Z,59.01
2019-01-16T15:50:52.016Z,59.75
2019-01-16T16:00:15.865Z,59.30
2019-01-16T16:03:00.155Z,59.41
2019-01-16T16:09:07.362Z,60.52
2019-01-16T16:12:13.542Z,61.14
2019-01-16T16:14:59.179Z,61.06
2019-01-16T16:18:05.278Z,61.66
2019-01-16T16:21:06.988Z,62.68
2019-01-16T16:23:54.218Z,62.54
2019-01-16T16:26:56.585Z,63.56
2019-01-16T16:29:41.134Z,64.02
2019-01-16T16:32:47.538Z,64.95
2019-01-16T16:35:47.324Z,65.52
2019-01-16T16:41:39.633Z,66.83
2019-01-16T16:44:45.972Z,66.78
2019-01-16T16:47:48.060Z,65.72
2019-01-16T16:50:54.169Z,65.60
2019-01-16T16:53:37.227Z,66.21
2019-01-16T16:56:43.660Z,67.16
2019-01-16T17:02:46.475Z,67.67
2019-01-16T17:05:28.683Z,67.59
2019-01-16T17:08:35.135Z,67.58
2019-01-16T17:11:19.874Z,67.56
2019-01-16T17:14:26.309Z,67.38
2019-01-16T17:17:11.013Z,67.86
2019-01-16T17:20:17.385Z,68.11
2019-01-16T17:23:01.579Z,68.65
2019-01-16T17:29:10.269Z,69.12
2019-01-16T17:32:17.508Z,69.15
2019-01-16T17:44:26.666Z,69.42
2019-01-16T17:47:11.557Z,69.86
2019-01-16T17:49:55.309Z,69.98
2019-01-16T17:53:01.407Z,70.64
2019-01-16T17:56:01.917Z,70.77
2019-01-16T17:58:48.131Z,70.44
2019-01-16T18:01:48.141Z,70.33
2019-01-16T18:04:29.698Z,70.48
2019-01-16T18:07:35.760Z,70.71
2019-01-16T18:10:35.915Z,70.91
2019-01-16T18:16:27.671Z,71.04
2019-01-16T18:19:35.103Z,71.09
2019-01-16T18:22:16.546Z,71.33
2019-01-16T18:28:22.265Z,71.77
2019-01-16T18:31:21.943Z,71.57
2019-01-16T18:37:11.822Z,71.60
2019-01-16T18:43:03.610Z,71.24
2019-01-16T18:46:10.019Z,70.96
2019-01-16T18:52:16.320Z,70.11
2019-01-16T18:55:15.862Z,69.97
2019-01-16T18:58:22.027Z,69.81
2019-01-16T19:01:07.051Z,69.67
2019-01-16T19:13:56.393Z,68.69
2019-01-16T19:17:02.764Z,68.70
2019-01-16T19:19:49.028Z,68.60
2019-01-16T19:22:58.163Z,68.48
2019-01-16T19:25:42.397Z,68.64
2019-01-16T19:31:33.788Z,68.96
2019-01-16T19:34:40.212Z,69.26
2019-01-16T19:37:40.315Z,69.28
2019-01-16T19:40:46.703Z,69.06
2019-01-16T19:47:00.150Z,68.65
2019-01-16T19:50:02.924Z,68.88
2019-01-16T19:53:09.416Z,68.83
2019-01-16T19:56:09.354Z,69.01
2019-01-16T19:59:15.740Z,68.70
2019-01-16T20:02:15.287Z,68.20
2019-01-16T20:05:21.407Z,67.81
2019-01-16T20:08:23.913Z,67.62
2019-01-16T20:11:30.355Z,67.60
2019-01-16T20:14:12.023Z,67.64
2019-01-16T20:17:18.136Z,67.87
2019-01-16T20:20:03.503Z,68.05
2019-01-16T20:23:11.226Z,68.04
2019-01-16T20:25:56.855Z,68.00
2019-01-16T20:29:03.256Z,68.02
2019-01-16T20:32:04.009Z,67.45
2019-01-16T20:35:10.162Z,67.31
2019-01-16T20:37:54.190Z,67.64
2019-01-16T20:41:00.355Z,67.76
2019-01-16T20:43:44.359Z,67.01
2019-01-16T20:46:50.746Z,67.10
2019-01-16T20:49:33.402Z,67.36
2019-01-16T20:52:39.791Z,67.83
2019-01-16T20:55:45.693Z,68.34
2019-01-16T20:58:48.080Z,68.64
2019-01-16T21:01:48.190Z,69.14
2019-01-16T21:04:30.277Z,69.31
2019-01-16T21:13:23.041Z,69.87
2019-01-16T21:16:06.834Z,69.43
2019-01-16T21:18:51.683Z,69.87
2019-01-16T21:21:36.480Z,69.76
2019-01-16T21:24:07.715Z,69.70
2019-01-16T21:26:38.835Z,69.79
2019-01-16T21:29:13.509Z,69.98
2019-01-16T21:31:42.134Z,69.99
2019-01-16T21:34:27.915Z,69.73
2019-01-16T21:37:05.347Z,69.81
2019-01-16T21:39:33.779Z,69.72
2019-01-16T21:42:18.689Z,69.72
2019-01-16T21:45:03.439Z,69.98
2019-01-16T21:47:36.499Z,69.96
2019-01-16T21:50:14.987Z,70.13
2019-01-16T21:52:46.171Z,70.24
2019-01-16T21:55:23.411Z,70.14
2019-01-16T21:58:08.158Z,70.01
2019-01-16T22:00:36.415Z,70.30
2019-01-16T22:03:05.667Z,70.31
2019-01-16T22:05:51.613Z,70.45
2019-01-16T22:08:36.684Z,70.65
2019-01-16T22:11:13.920Z,70.93
2019-01-16T22:13:42.392Z,71.17
2019-01-16T22:16:09.131Z,71.21
2019-01-16T22:18:41.622Z,70.36
2019-01-16T22:21:09.839Z,70.47
2019-01-16T22:23:54.614Z,70.29
2019-01-16T22:26:25.468Z,70.10
2019-01-16T22:29:08.962Z,70.44
2019-01-16T22:31:41.517Z,70.39
2019-01-16T22:34:15.976Z,70.17
2019-01-16T22:36:50.278Z,70.52
2019-01-16T22:39:25.916Z,70.68
2019-01-16T22:42:00.594Z,69.97
2019-01-16T22:44:28.807Z,70.27
2019-01-16T22:46:57.513Z,70.50
2019-01-16T22:49:32.009Z,71.03
2019-01-16T22:52:09.487Z,71.26
2019-01-16T22:54:46.707Z,71.10
2019-01-16T22:57:17.802Z,71.25
2019-01-16T23:00:04.164Z,70.80
2019-01-16T23:02:40.221Z,70.44
2019-01-16T23:05:26.692Z,70.94
2019-01-16T23:07:58.970Z,71.02
2019-01-16T23:10:33.187Z,71.37
2019-01-16T23:13:01.741Z,71.58
2019-01-16T23:15:30.347Z,71.92
2019-01-16T23:18:15.165Z,72.42
2019-01-16T23:20:49.415Z,72.45
2019-01-16T23:23:20.293Z,72.44
2019-01-16T23:25:54.982Z,72.56
2019-01-16T23:28:28.864Z,72.90
2019-01-16T23:30:57.372Z,73.18
2019-01-16T23:33:26.574Z,73.42
2019-01-16T23:35:52.878Z,72.79
2019-01-16T23:38:37.596Z,72.52
2019-01-16T23:41:08.520Z,72.20
2019-01-16T23:43:39.618Z,71.62
2019-01-16T23:46:08.128Z,71.22
2019-01-16T23:48:45.101Z,71.37
2019-01-16T23:51:16.611Z,71.33
2019-01-16T23:53:56.056Z,71.34
2019-01-16T23:56:24.733Z,70.98
2019-01-16T23:58:55.944Z,71.17
